createdAt,value
2023-05-12T00:02:27.343Z,99288.46
2023-05-12T00:07:31.427Z,99286.57
2023-05-12T00:12:35.340Z,99284.40
2023-05-12T00:17:39.398Z,99283.95
2023-05-12T00:22:44.401Z,99284.02
2023-05-12T00:27:49.039Z,99285.45
2023-05-12T00:32:52.972Z,99285.50
2023-05-12T00:37:57.209Z,99288.91
2023-05-12T00:43:01.350Z,99290.63
2023-05-12T00:48:07.764Z,99288.23
2023-05-12T00:53:12.512Z,99289.69
2023-05-12T00:58:16.895Z,99290.03
2023-05-12T01:03:21.532Z,99295.00
2023-05-12T01:08:26.291Z,99297.52
2023-05-12T01:13:31.251Z,99300.73
2023-05-12T01:18:38.060Z,99302.17
2023-05-12T01:23:47.039Z,99301.77
2023-05-12T01:28:52.166Z,99303.06
2023-05-12T01:33:56.361Z,99312.86
2023-05-12T01:39:00.673Z,99315.02
2023-05-12T01:44:04.615Z,99316.37
2023-05-12T01:49:08.436Z,99319.16
2023-05-12T01:54:12.384Z,99316.08
2023-05-12T01:59:16.216Z,99319.56
2023-05-12T02:04:19.932Z,99315.77
2023-05-12T02:09:23.752Z,99316.28
2023-05-12T02:14:28.492Z,99314.03
2023-05-12T02:19:32.827Z,99311.16
2023-05-12T02:24:36.571Z,99316.60
2023-05-12T02:29:41.592Z,99318.95
2023-05-12T02:34:45.842Z,99320.67
2023-05-12T02:39:50.093Z,99325.46
2023-05-12T02:44:54.016Z,99327.54
2023-05-12T02:50:00.981Z,99323.49
2023-05-12T02:55:06.008Z,99321.64
2023-05-12T03:00:12.232Z,99323.25
2023-05-12T03:05:16.243Z,99318.05
2023-05-12T03:10:20.469Z,99314.10
2023-05-12T03:15:24.698Z,99308.08
2023-05-12T03:20:28.877Z,99311.31
2023-05-12T03:25:34.706Z,99314.52
2023-05-12T03:30:38.731Z,99317.22
2023-05-12T03:35:42.883Z,99315.44
2023-05-12T03:40:52.006Z,99314.70
2023-05-12T03:45:55.881Z,99320.30
2023-05-12T03:50:59.845Z,99325.42
2023-05-12T03:56:07.057Z,99327.95
2023-05-12T04:01:09.878Z,99329.61
2023-05-12T04:06:13.491Z,99332.91
2023-05-12T04:11:17.527Z,99333.69
2023-05-12T04:16:22.175Z,99334.96
2023-05-12T04:21:26.193Z,99336.48
2023-05-12T04:26:30.307Z,99338.86
2023-05-12T04:31:34.205Z,99344.98
2023-05-12T04:36:37.920Z,99347.17
2023-05-12T04:41:41.879Z,99348.31
2023-05-12T04:46:45.706Z,99348.89
2023-05-12T04:51:49.842Z,99345.92
2023-05-12T04:56:54.310Z,99349.69
2023-05-12T05:01:59.229Z,99355.67
2023-05-12T05:07:03.671Z,99356.14
2023-05-12T05:12:09.032Z,99354.67
2023-05-12T05:17:13.165Z,99362.60
2023-05-12T05:22:17.527Z,99365.25
2023-05-12T05:27:22.119Z,99366.43
2023-05-12T05:32:26.391Z,99365.92
2023-05-12T05:37:30.806Z,99374.96
2023-05-12T05:42:34.618Z,99380.81
2023-05-12T05:47:38.309Z,99381.05
2023-05-12T05:52:42.171Z,99381.76
2023-05-12T05:57:46.017Z,99381.38
2023-05-12T06:02:49.877Z,99383.67
2023-05-12T06:07:54.261Z,99391.81
2023-05-12T06:12:57.996Z,99392.80
2023-05-12T06:18:02.084Z,99396.05
2023-05-12T06:23:06.370Z,99396.23
2023-05-12T06:28:10.159Z,99395.23
2023-05-12T06:33:14.942Z,99393.54
2023-05-12T06:38:18.634Z,99399.48
2023-05-12T06:43:22.960Z,99398.31
2023-05-12T06:48:26.809Z,99398.72
2023-05-12T06:53:31.939Z,99397.98
2023-05-12T06:58:35.858Z,99400.90
2023-05-12T07:03:39.968Z,99402.55
2023-05-12T07:08:43.967Z,99400.36
2023-05-12T07:13:48.257Z,99402.30
2023-05-12T07:18:52.113Z,99398.66
2023-05-12T07:23:56.041Z,99395.05
2023-05-12T07:29:00.831Z,99398.59
2023-05-12T07:34:05.592Z,99399.91
2023-05-12T07:39:09.413Z,99399.74
2023-05-12T07:44:13.108Z,99403.77
2023-05-12T07:49:16.958Z,99403.73
2023-05-12T07:54:20.661Z,99406.40
2023-05-12T07:59:24.515Z,99402.56
2023-05-12T08:04:28.534Z,99399.52
2023-05-12T08:09:32.693Z,99400.80
2023-05-12T08:14:37.420Z,99400.36
2023-05-12T08:19:42.007Z,99396.14
2023-05-12T08:24:46.487Z,99393.58
2023-05-12T08:29:50.243Z,99396.98
2023-05-12T08:34:54.815Z,99396.27
2023-05-12T08:39:58.889Z,99391.96
2023-05-12T08:45:04.138Z,99391.30
2023-05-12T08:50:11.208Z,99396.74
2023-05-12T08:55:15.484Z,99395.61
2023-05-12T09:00:22.341Z,99396.25
2023-05-12T09:05:29.375Z,99397.42
2023-05-12T09:10:35.501Z,99394.60
2023-05-12T09:15:44.926Z,99396.36
2023-05-12T09:20:48.825Z,99402.86
2023-05-12T09:26:01.168Z,99395.40
2023-05-12T09:31:16.248Z,99392.34
2023-05-12T09:36:21.311Z,99391.14
2023-05-12T09:41:25.418Z,99386.59
2023-05-12T09:46:29.673Z,99380.73
2023-05-12T09:51:33.474Z,99384.13
2023-05-12T09:56:38.755Z,99383.20
2023-05-12T10:01:43.036Z,99377.84
2023-05-12T10:06:47.697Z,99386.05
2023-05-12T10:11:53.789Z,99382.86
2023-05-12T10:16:57.717Z,99381.86
2023-05-12T10:22:02.859Z,99380.23
2023-05-12T10:27:08.206Z,99378.91
2023-05-12T10:32:12.595Z,99378.65
2023-05-12T10:37:16.958Z,99378.48
2023-05-12T10:48:09.514Z,99373.98
2023-05-12T10:53:13.718Z,99368.59
2023-05-12T10:58:19.537Z,99373.91
2023-05-12T11:03:25.599Z,99367.64
2023-05-12T11:08:32.433Z,99372.33
2023-05-12T11:13:36.970Z,99373.13
2023-05-12T11:18:40.803Z,99373.09
2023-05-12T11:23:50.196Z,99373.77
2023-05-12T11:28:54.208Z,99375.11
2023-05-12T11:34:11.858Z,99371.95
2023-05-12T11:39:18.354Z,99378.14
2023-05-12T11:44:23.602Z,99377.39
2023-05-12T11:49:28.661Z,99374.53
2023-05-12T11:54:32.595Z,99376.41
2023-05-12T11:59:36.838Z,99377.41
2023-05-12T12:04:41.927Z,99375.89
2023-05-12T12:09:45.792Z,99372.96
2023-05-12T12:14:49.652Z,99377.25
2023-05-12T12:19:53.632Z,99382.70
2023-05-12T12:24:57.610Z,99374.41
2023-05-12T12:30:02.007Z,99368.90
2023-05-12T12:35:07.586Z,99373.69
2023-05-12T12:40:12.995Z,99375.17
2023-05-12T12:45:19.357Z,99374.54
2023-05-12T12:50:26.441Z,99375.66
2023-05-12T12:55:31.497Z,99373.80
2023-05-12T13:00:36.176Z,99365.38
2023-05-12T13:05:40.174Z,99357.02
2023-05-12T13:10:43.972Z,99356.60
2023-05-12T13:15:50.052Z,99360.96
2023-05-12T13:20:54.163Z,99363.18
2023-05-12T13:25:58.805Z,99358.61
2023-05-12T13:31:02.711Z,99355.98
2023-05-12T13:36:08.316Z,99351.40
2023-05-12T13:41:12.415Z,99352.17
2023-05-12T13:46:16.130Z,99355.00
2023-05-12T13:51:20.787Z,99357.17
2023-05-12T13:56:25.226Z,99358.61
2023-05-12T14:01:31.011Z,99356.77
2023-05-12T14:06:36.145Z,99354.58
2023-05-12T14:11:40.691Z,99350.48
2023-05-12T14:16:44.792Z,99346.48
2023-05-12T14:21:49.362Z,99341.67
2023-05-12T14:26:54.338Z,99343.15
2023-05-12T14:31:59.379Z,99344.92
2023-05-12T14:37:03.283Z,99343.23
2023-05-12T14:42:08.535Z,99349.45
2023-05-12T14:47:12.465Z,99339.05
2023-05-12T14:52:16.304Z,99341.03
2023-05-12T14:57:20.678Z,99348.48
2023-05-12T15:02:24.879Z,99344.56
2023-05-12T15:07:29.588Z,99343.17
2023-05-12T15:12:33.578Z,99345.26
2023-05-12T15:17:38.128Z,99342.14
2023-05-12T15:22:42.221Z,99348.45
2023-05-12T15:27:46.183Z,99346.89
2023-05-12T15:32:50.465Z,99348.79
2023-05-12T15:37:54.349Z,99344.73
2023-05-12T15:42:58.545Z,99344.41
2023-05-12T15:48:02.757Z,99351.36
2023-05-12T15:53:07.162Z,99359.02
2023-05-12T15:58:11.523Z,99350.59
2023-05-12T16:03:15.501Z,99348.83
2023-05-12T16:08:20.323Z,99346.89
2023-05-12T16:13:24.305Z,99346.98
2023-05-12T16:18:30.144Z,99348.59
2023-05-12T16:23:33.796Z,99350.92
2023-05-12T16:28:37.566Z,99357.36
2023-05-12T16:33:41.466Z,99361.38
2023-05-12T16:38:45.549Z,99370.52
2023-05-12T16:43:49.922Z,99373.02
2023-05-12T16:48:54.035Z,99373.84
2023-05-12T16:53:57.898Z,99374.22
2023-05-12T16:59:02.220Z,99372.77
2023-05-12T17:04:07.351Z,99376.57
2023-05-12T17:09:11.288Z,99379.04
2023-05-12T17:14:16.232Z,99378.01
2023-05-12T17:19:21.751Z,99386.25
2023-05-12T17:24:26.347Z,99386.41
2023-05-12T17:29:31.216Z,99392.16
2023-05-12T17:34:35.638Z,99395.57
2023-05-12T17:39:41.605Z,99402.64
2023-05-12T17:44:46.139Z,99404.48
2023-05-12T17:49:50.033Z,99404.65
2023-05-12T17:54:56.547Z,99409.94
2023-05-12T18:00:03.544Z,99413.05
2023-05-12T18:05:09.411Z,99413.45
2023-05-12T18:10:13.799Z,99415.23
2023-05-12T18:15:19.395Z,99416.79
2023-05-12T18:20:23.360Z,99423.58
2023-05-12T18:25:27.693Z,99425.06
2023-05-12T18:30:31.750Z,99429.59
2023-05-12T18:35:35.568Z,99432.02
2023-05-12T18:40:40.129Z,99441.00
2023-05-12T18:45:43.817Z,99448.12
2023-05-12T18:50:47.718Z,99445.71
2023-05-12T18:55:51.490Z,99450.16
2023-05-12T19:00:55.232Z,99453.39
2023-05-12T19:05:59.765Z,99454.08
2023-05-12T19:11:03.746Z,99454.64
2023-05-12T19:16:08.140Z,99455.38
2023-05-12T19:21:12.883Z,99459.39
2023-05-12T19:26:16.746Z,99458.61
2023-05-12T19:31:20.559Z,99463.78
2023-05-12T19:36:24.395Z,99466.06
2023-05-12T19:41:28.964Z,99471.39
2023-05-12T19:46:33.368Z,99474.77
2023-05-12T19:51:37.711Z,99478.88
2023-05-12T19:56:41.465Z,99480.73
2023-05-12T20:01:45.557Z,99480.85
2023-05-12T20:06:50.130Z,99480.70
2023-05-12T20:11:54.641Z,99483.55
2023-05-12T20:17:05.072Z,99490.41
2023-05-12T20:22:10.038Z,99485.11
2023-05-12T20:27:13.882Z,99487.86
2023-05-12T20:32:17.732Z,99485.13
2023-05-12T20:37:21.939Z,99483.52
2023-05-12T20:42:25.788Z,99481.35
2023-05-12T20:47:30.443Z,99482.98
2023-05-12T20:52:36.500Z,99477.97
2023-05-12T20:57:41.018Z,99483.95
2023-05-12T21:02:45.249Z,99482.65
2023-05-12T21:07:49.684Z,99481.42
2023-05-12T21:12:53.547Z,99482.31
2023-05-12T21:17:58.455Z,99485.86
2023-05-12T21:23:02.920Z,99485.16
2023-05-12T21:28:07.175Z,99491.39
2023-05-12T21:33:11.179Z,99495.48
2023-05-12T21:38:15.229Z,99498.52
2023-05-12T21:43:19.028Z,99506.50
2023-05-12T21:48:24.364Z,99506.52
2023-05-12T21:53:29.032Z,99510.20
2023-05-12T21:58:33.103Z,99510.35
2023-05-12T22:03:37.491Z,99508.27
2023-05-12T22:08:41.853Z,99508.20
2023-05-12T22:13:45.748Z,99503.40
2023-05-12T22:18:49.552Z,99503.99
2023-05-12T22:23:53.818Z,99508.92
2023-05-12T22:28:57.581Z,99509.63
2023-05-12T22:34:01.615Z,99509.45
2023-05-12T22:39:05.721Z,99509.52
2023-05-12T22:44:09.624Z,99507.06
2023-05-12T22:49:13.438Z,99504.25
2023-05-12T22:54:17.184Z,99507.97
2023-05-12T22:59:20.909Z,99514.40
2023-05-12T23:04:25.155Z,99511.48
2023-05-12T23:09:29.348Z,99506.55
2023-05-12T23:14:33.568Z,99507.23
2023-05-12T23:19:39.031Z,99509.48
2023-05-12T23:24:43.810Z,99506.80
2023-05-12T23:29:47.694Z,99508.52
2023-05-12T23:34:51.680Z,99504.61
2023-05-12T23:39:55.826Z,99502.43
2023-05-12T23:45:00.415Z,99501.38
2023-05-12T23:50:06.480Z,99507.33
2023-05-12T23:55:11.655Z,99507.31
